createdAt,value
2017-07-05T00:00:18.402Z,19.90
2017-07-05T00:02:45.821Z,19.90
2017-07-05T00:05:13.268Z,19.90
2017-07-05T00:07:40.696Z,19.90
2017-07-05T00:10:08.128Z,19.80
2017-07-05T00:12:35.567Z,19.70
2017-07-05T00:15:02.985Z,19.60
2017-07-05T00:17:31.190Z,19.40
2017-07-05T00:19:58.636Z,19.40
2017-07-05T00:22:26.055Z,19.40
2017-07-05T00:24:53.526Z,19.30
2017-07-05T00:27:21.701Z,19.30
2017-07-05T00:29:49.153Z,19.30
2017-07-05T00:32:16.629Z,19.20
2017-07-05T00:34:44.053Z,19.20
2017-07-05T00:37:12.243Z,19.10
2017-07-05T00:39:39.671Z,19.10
2017-07-05T00:42:07.165Z,19.10
2017-07-05T00:44:34.594Z,19.10
2017-07-05T00:47:02.034Z,19.00
2017-07-05T00:49:29.479Z,19.00
2017-07-05T00:51:56.909Z,19.00
2017-07-05T00:54:24.341Z,19.00
2017-07-05T00:56:52.316Z,18.90
2017-07-05T00:59:19.780Z,18.90
2017-07-05T01:01:47.209Z,18.80
2017-07-05T01:04:14.669Z,18.70
2017-07-05T01:06:42.101Z,18.70
2017-07-05T01:09:09.540Z,18.70
2017-07-05T01:11:36.982Z,18.60
2017-07-05T01:14:04.517Z,18.60
2017-07-05T01:16:31.932Z,18.50
2017-07-05T01:18:59.364Z,18.50
2017-07-05T01:21:26.801Z,18.50
2017-07-05T01:23:54.233Z,18.50
2017-07-05T01:26:22.507Z,18.40
2017-07-05T01:28:49.929Z,18.50
2017-07-05T01:31:18.132Z,18.30
2017-07-05T01:33:45.573Z,18.30
2017-07-05T01:36:13.004Z,18.30
2017-07-05T01:38:40.555Z,18.30
2017-07-05T01:41:07.984Z,18.30
2017-07-05T01:43:36.213Z,18.30
2017-07-05T01:46:03.672Z,18.20
2017-07-05T01:48:31.873Z,18.20
2017-07-05T01:50:59.313Z,18.20
2017-07-05T01:53:26.745Z,18.20
2017-07-05T01:55:54.172Z,18.10
2017-07-05T01:58:21.621Z,18.10
2017-07-05T02:00:49.849Z,18.10
2017-07-05T02:03:17.301Z,18.00
2017-07-05T02:05:45.493Z,18.00
2017-07-05T02:08:12.938Z,18.00
2017-07-05T02:10:40.416Z,18.00
2017-07-05T02:13:07.856Z,18.00
2017-07-05T02:15:35.289Z,18.00
2017-07-05T02:18:02.728Z,17.90
2017-07-05T02:20:30.201Z,17.90
2017-07-05T02:22:57.633Z,17.90
2017-07-05T02:25:25.082Z,18.00
2017-07-05T02:27:52.514Z,18.00
2017-07-05T02:30:19.950Z,18.00
2017-07-05T02:32:47.376Z,18.00
2017-07-05T02:35:14.812Z,17.90
2017-07-05T02:37:42.244Z,18.00
2017-07-05T02:40:09.676Z,18.00
2017-07-05T02:42:37.105Z,17.90
2017-07-05T02:45:04.534Z,18.00
2017-07-05T02:47:31.964Z,17.90
2017-07-05T02:49:59.404Z,17.90
2017-07-05T02:52:26.847Z,17.90
2017-07-05T02:54:54.304Z,17.90
2017-07-05T02:57:21.744Z,17.90
2017-07-05T02:59:49.175Z,17.80
2017-07-05T03:02:16.621Z,17.80
2017-07-05T03:04:44.049Z,17.70
2017-07-05T03:07:11.485Z,17.70
2017-07-05T03:09:38.913Z,17.70
2017-07-05T03:12:06.359Z,17.70
2017-07-05T03:14:33.788Z,17.70
2017-07-05T03:17:01.230Z,17.60
2017-07-05T03:19:28.663Z,17.60
2017-07-05T03:21:56.095Z,17.60
2017-07-05T03:24:24.262Z,17.60
2017-07-05T03:26:51.697Z,17.50
2017-07-05T03:29:19.123Z,17.50
2017-07-05T03:31:46.559Z,17.40
2017-07-05T03:34:13.989Z,17.30
2017-07-05T03:36:41.432Z,17.20
2017-07-05T03:39:08.877Z,17.10
2017-07-05T03:41:36.321Z,17.10
2017-07-05T03:44:03.815Z,17.10
2017-07-05T03:46:31.276Z,17.00
2017-07-05T03:48:58.715Z,17.00
2017-07-05T03:51:27.125Z,17.00
2017-07-05T03:53:55.333Z,17.10
2017-07-05T03:56:22.765Z,17.00
2017-07-05T03:58:50.192Z,17.10
2017-07-05T04:01:18.160Z,17.10
2017-07-05T04:03:45.609Z,17.20
2017-07-05T04:06:13.049Z,17.30
2017-07-05T04:08:40.530Z,17.30
2017-07-05T04:11:07.977Z,17.20
2017-07-05T04:13:35.408Z,17.30
2017-07-05T04:16:02.875Z,17.30
2017-07-05T04:18:30.316Z,17.30
2017-07-05T04:20:57.747Z,17.30
2017-07-05T04:23:25.197Z,17.20
2017-07-05T04:25:52.633Z,17.30
2017-07-05T04:28:20.070Z,17.30
2017-07-05T04:30:47.508Z,17.30
2017-07-05T04:33:14.952Z,17.30
2017-07-05T04:35:42.391Z,17.40
2017-07-05T04:38:09.846Z,17.40
2017-07-05T04:40:37.264Z,17.50
2017-07-05T04:43:04.704Z,17.50
2017-07-05T04:45:32.150Z,17.60
2017-07-05T04:47:59.577Z,17.60
2017-07-05T04:50:27.019Z,17.60
2017-07-05T04:52:54.468Z,17.70
2017-07-05T04:55:21.941Z,17.80
2017-07-05T04:57:49.385Z,17.90
2017-07-05T05:00:16.949Z,18.00
2017-07-05T05:02:45.170Z,18.30
2017-07-05T05:05:12.629Z,18.20
2017-07-05T05:07:40.057Z,18.40
2017-07-05T05:10:07.501Z,18.60
2017-07-05T05:12:34.964Z,18.90
2017-07-05T05:15:02.400Z,19.10
2017-07-05T05:17:29.848Z,19.40
2017-07-05T05:19:57.298Z,19.70
2017-07-05T05:22:24.911Z,20.00
2017-07-05T05:24:52.480Z,20.30
2017-07-05T05:27:19.954Z,20.80
2017-07-05T05:29:48.160Z,21.80
2017-07-05T05:32:15.598Z,21.80
2017-07-05T05:34:43.092Z,22.20
2017-07-05T05:37:11.333Z,23.10
2017-07-05T05:39:38.780Z,23.10
2017-07-05T05:42:06.232Z,23.60
2017-07-05T05:44:33.671Z,23.80
2017-07-05T05:47:01.109Z,24.10
2017-07-05T05:49:28.557Z,24.50
2017-07-05T05:51:55.989Z,24.90
2017-07-05T05:54:23.423Z,25.40
2017-07-05T05:56:50.860Z,25.80
2017-07-05T05:59:18.317Z,26.20
2017-07-05T06:01:45.763Z,26.70
2017-07-05T06:04:13.225Z,27.10
2017-07-05T06:06:41.432Z,27.00
2017-07-05T06:09:08.869Z,27.00
2017-07-05T06:11:36.306Z,26.90
2017-07-05T06:14:03.764Z,27.20
2017-07-05T06:16:31.191Z,27.60
2017-07-05T06:18:58.620Z,27.80
2017-07-05T06:21:26.080Z,28.20
2017-07-05T06:23:53.548Z,28.40
2017-07-05T06:26:20.989Z,28.80
2017-07-05T06:28:48.418Z,29.10
2017-07-05T06:31:15.864Z,29.40
2017-07-05T06:33:43.281Z,29.40
2017-07-05T06:36:10.864Z,29.50
2017-07-05T06:38:38.301Z,29.60
2017-07-05T06:41:05.736Z,29.60
2017-07-05T06:43:33.171Z,29.70
2017-07-05T06:46:00.630Z,30.00
2017-07-05T06:48:28.059Z,30.30
2017-07-05T06:50:55.497Z,30.70
2017-07-05T06:53:22.952Z,31.10
2017-07-05T06:55:50.382Z,31.40
2017-07-05T06:58:17.837Z,31.50
2017-07-05T07:00:45.255Z,31.70
2017-07-05T07:03:12.700Z,31.80
2017-07-05T07:05:40.158Z,32.00
2017-07-05T07:08:07.613Z,32.10
2017-07-05T07:10:35.051Z,32.30
2017-07-05T07:13:02.489Z,32.30
2017-07-05T07:15:29.915Z,32.30
2017-07-05T07:17:57.350Z,32.20
2017-07-05T07:20:24.790Z,32.30
2017-07-05T07:22:52.214Z,32.80
2017-07-05T07:25:20.420Z,33.20
2017-07-05T07:27:47.872Z,33.20
2017-07-05T07:30:15.296Z,33.00
2017-07-05T07:32:42.736Z,33.20
2017-07-05T07:35:10.335Z,33.30
2017-07-05T07:37:38.538Z,33.80
2017-07-05T07:40:05.975Z,33.80
2017-07-05T07:42:33.399Z,33.80
2017-07-05T07:45:00.847Z,34.00
2017-07-05T07:47:28.386Z,34.20
2017-07-05T07:49:56.567Z,34.40
2017-07-05T07:52:24.032Z,34.40
2017-07-05T07:54:51.477Z,34.70
2017-07-05T07:57:19.020Z,34.50
2017-07-05T07:59:46.460Z,34.70
2017-07-05T08:02:13.891Z,34.90
2017-07-05T08:04:41.328Z,34.70
2017-07-05T08:07:08.757Z,34.90
2017-07-05T08:09:36.215Z,34.70
2017-07-05T08:12:03.771Z,34.50
2017-07-05T08:14:31.207Z,34.50
2017-07-05T08:16:58.640Z,34.40
2017-07-05T08:19:26.068Z,34.70
2017-07-05T08:21:53.508Z,34.90
2017-07-05T08:24:21.024Z,35.30
2017-07-05T08:26:49.228Z,35.80
2017-07-05T08:29:16.732Z,35.80
2017-07-05T08:31:44.947Z,35.90
2017-07-05T08:34:12.365Z,35.80
2017-07-05T08:36:39.799Z,35.70
2017-07-05T08:39:07.240Z,35.40
2017-07-05T08:41:34.744Z,35.30
2017-07-05T08:44:02.188Z,35.30
2017-07-05T08:46:29.628Z,35.30
2017-07-05T08:48:57.056Z,35.30
2017-07-05T08:51:24.484Z,35.40
2017-07-05T08:53:51.932Z,35.30
2017-07-05T08:56:19.361Z,35.60
2017-07-05T08:58:46.815Z,35.80
2017-07-05T09:01:14.230Z,36.10
2017-07-05T09:03:41.673Z,36.30
2017-07-05T09:06:09.104Z,36.30
2017-07-05T09:08:37.305Z,36.20
2017-07-05T09:11:04.736Z,36.20
2017-07-05T09:13:32.192Z,36.30
2017-07-05T09:15:59.625Z,36.10
2017-07-05T09:18:27.068Z,36.20
2017-07-05T09:20:54.512Z,36.00
2017-07-05T09:23:21.939Z,35.80
2017-07-05T09:25:49.377Z,35.80
2017-07-05T09:28:16.865Z,35.70
2017-07-05T09:30:44.325Z,35.90
2017-07-05T09:33:11.747Z,36.20
2017-07-05T09:35:39.189Z,36.40
2017-07-05T09:38:06.669Z,36.50
2017-07-05T09:40:34.134Z,36.70
2017-07-05T09:43:01.567Z,36.90
2017-07-05T09:45:29.007Z,36.90
2017-07-05T09:47:56.443Z,36.20
2017-07-05T09:50:24.656Z,36.30
2017-07-05T09:52:52.097Z,36.30
2017-07-05T09:55:19.573Z,36.50
2017-07-05T09:57:47.856Z,36.60
2017-07-05T10:00:16.053Z,36.30
2017-07-05T10:02:43.609Z,36.30
2017-07-05T10:05:11.077Z,36.20
2017-07-05T10:07:38.615Z,36.00
2017-07-05T10:10:06.048Z,36.10
2017-07-05T10:12:33.550Z,36.10
2017-07-05T10:15:00.985Z,36.10
2017-07-05T10:17:28.421Z,36.30
2017-07-05T10:19:56.625Z,37.00
2017-07-05T10:22:24.072Z,36.90
2017-07-05T10:24:51.518Z,36.80
2017-07-05T10:27:18.959Z,36.80
2017-07-05T10:29:46.604Z,36.50
2017-07-05T10:32:14.032Z,36.60
2017-07-05T10:34:41.468Z,37.00
2017-07-05T10:37:08.898Z,37.60
2017-07-05T10:39:36.361Z,36.80
2017-07-05T10:42:03.787Z,36.50
2017-07-05T10:44:31.209Z,36.20
2017-07-05T10:46:58.652Z,36.60
2017-07-05T10:49:26.076Z,37.00
2017-07-05T10:51:54.286Z,36.80
2017-07-05T10:54:21.749Z,36.80
2017-07-05T10:56:49.192Z,36.40
2017-07-05T10:59:16.659Z,35.80
2017-07-05T11:01:44.089Z,34.80
2017-07-05T11:04:11.522Z,34.10
2017-07-05T11:06:38.983Z,33.70
2017-07-05T11:09:06.412Z,33.00
2017-07-05T11:11:33.895Z,32.50
2017-07-05T11:14:01.340Z,31.90
2017-07-05T11:16:28.790Z,31.40
2017-07-05T11:18:56.229Z,31.10
2017-07-05T11:21:23.661Z,30.90
2017-07-05T11:23:51.112Z,30.50
2017-07-05T11:26:18.539Z,30.40
2017-07-05T11:28:46.744Z,30.20
2017-07-05T11:31:14.177Z,30.20
2017-07-05T11:33:41.626Z,29.90
2017-07-05T11:36:09.078Z,29.70
2017-07-05T11:38:36.605Z,29.70
2017-07-05T11:41:04.020Z,29.70
2017-07-05T11:43:31.460Z,29.80
2017-07-05T11:45:59.661Z,29.80
2017-07-05T11:48:27.195Z,29.80
2017-07-05T11:50:54.619Z,29.80
2017-07-05T11:53:22.044Z,29.70
2017-07-05T11:55:50.248Z,29.60
2017-07-05T11:58:17.679Z,29.60
2017-07-05T12:00:45.139Z,29.70
2017-07-05T12:03:12.605Z,29.70
2017-07-05T12:05:40.041Z,29.70
2017-07-05T12:08:07.578Z,29.70
2017-07-05T12:10:35.036Z,29.70
2017-07-05T12:13:02.491Z,29.80
2017-07-05T12:15:30.020Z,29.80
2017-07-05T12:17:57.449Z,29.90
2017-07-05T12:20:24.987Z,29.90
2017-07-05T12:22:52.444Z,29.90
2017-07-05T12:25:19.931Z,29.90
2017-07-05T12:27:47.436Z,29.70
2017-07-05T12:30:14.891Z,29.70
2017-07-05T12:32:42.326Z,29.50
2017-07-05T12:35:09.809Z,29.50
2017-07-05T12:37:37.242Z,29.60
2017-07-05T12:40:05.573Z,29.70
2017-07-05T12:42:33.115Z,29.70
2017-07-05T12:45:00.544Z,29.70
2017-07-05T12:47:27.983Z,29.70
2017-07-05T12:49:55.395Z,29.70
2017-07-05T12:52:22.837Z,29.60
2017-07-05T12:54:50.269Z,29.60
2017-07-05T12:57:17.713Z,29.70
2017-07-05T12:59:45.584Z,29.70
2017-07-05T13:02:13.046Z,29.60
2017-07-05T13:04:40.480Z,29.70
2017-07-05T13:07:07.905Z,29.70
2017-07-05T13:09:35.348Z,29.70
2017-07-05T13:12:02.773Z,29.70
2017-07-05T13:14:30.239Z,29.70
2017-07-05T13:16:57.673Z,29.80
2017-07-05T13:19:25.171Z,29.70
2017-07-05T13:21:52.711Z,29.70
2017-07-05T13:24:20.145Z,29.70
2017-07-05T13:26:47.577Z,29.80
2017-07-05T13:29:15.020Z,29.70
2017-07-05T13:31:42.451Z,29.70
2017-07-05T13:34:09.908Z,29.80
2017-07-05T13:36:37.341Z,29.80
2017-07-05T13:39:04.772Z,29.80
2017-07-05T13:41:32.213Z,29.90
2017-07-05T13:43:59.640Z,29.90
2017-07-05T13:46:27.076Z,29.90
2017-07-05T13:48:54.527Z,30.00
2017-07-05T13:51:21.997Z,30.10
2017-07-05T13:53:49.443Z,30.10
2017-07-05T13:56:16.878Z,30.00
2017-07-05T13:58:44.332Z,30.10
2017-07-05T14:01:11.766Z,30.10
2017-07-05T14:03:39.192Z,30.20
2017-07-05T14:06:06.629Z,30.20
2017-07-05T14:08:34.075Z,30.20
2017-07-05T14:11:01.511Z,30.30
2017-07-05T14:13:28.961Z,30.30
2017-07-05T14:15:56.389Z,30.40
2017-07-05T14:18:23.835Z,30.50
2017-07-05T14:20:51.268Z,30.40
2017-07-05T14:23:19.467Z,30.40
2017-07-05T14:25:46.905Z,30.40
2017-07-05T14:28:14.402Z,30.40
2017-07-05T14:30:42.587Z,30.50
2017-07-05T14:33:10.036Z,30.50
2017-07-05T14:35:37.464Z,30.40
2017-07-05T14:38:04.913Z,30.50
2017-07-05T14:40:32.339Z,30.60
2017-07-05T14:42:59.913Z,30.60
2017-07-05T14:45:27.348Z,30.60
2017-07-05T14:47:54.788Z,30.50
2017-07-05T14:50:22.288Z,30.50
2017-07-05T14:52:49.717Z,30.40
2017-07-05T14:55:17.150Z,30.40
2017-07-05T14:57:44.581Z,30.20
2017-07-05T15:00:12.037Z,30.20
2017-07-05T15:02:39.498Z,30.30
2017-07-05T15:05:06.945Z,30.30
2017-07-05T15:07:34.499Z,30.30
2017-07-05T15:10:02.699Z,30.20
2017-07-05T15:12:30.159Z,30.20
2017-07-05T15:14:57.581Z,30.10
2017-07-05T15:17:25.020Z,30.10
2017-07-05T15:19:52.453Z,30.00
2017-07-05T15:22:19.890Z,30.00
2017-07-05T15:24:47.382Z,29.90
2017-07-05T15:27:14.818Z,30.00
2017-07-05T15:29:42.305Z,30.00
2017-07-05T15:32:10.517Z,30.00
2017-07-05T15:34:37.957Z,30.00
2017-07-05T15:37:05.440Z,30.00
2017-07-05T15:39:32.864Z,30.10
2017-07-05T15:42:00.389Z,30.20
2017-07-05T15:44:27.809Z,30.30
2017-07-05T15:46:55.241Z,30.40
2017-07-05T15:49:22.684Z,30.50
2017-07-05T15:51:50.108Z,30.60
2017-07-05T15:54:17.615Z,30.60
2017-07-05T15:56:45.039Z,30.50
2017-07-05T15:59:12.547Z,30.40
2017-07-05T16:01:40.742Z,30.40
2017-07-05T16:04:08.176Z,30.30
2017-07-05T16:06:35.658Z,30.30
2017-07-05T16:09:03.105Z,30.20
2017-07-05T16:11:30.538Z,30.20
2017-07-05T16:13:57.992Z,30.10
2017-07-05T16:16:25.435Z,30.10
2017-07-05T16:18:52.871Z,30.00
2017-07-05T16:21:20.366Z,30.00
2017-07-05T16:23:47.791Z,30.10
2017-07-05T16:26:15.997Z,30.10
2017-07-05T16:28:43.433Z,30.10
2017-07-05T16:31:10.895Z,30.10
2017-07-05T16:33:38.334Z,30.10
2017-07-05T16:36:05.779Z,30.00
2017-07-05T16:38:33.207Z,30.00
2017-07-05T16:41:00.637Z,30.00
2017-07-05T16:43:28.073Z,29.90
2017-07-05T16:45:55.581Z,29.90
2017-07-05T16:48:23.781Z,29.80
2017-07-05T16:50:51.265Z,29.80
2017-07-05T16:53:18.701Z,29.70
2017-07-05T16:55:46.121Z,29.70
2017-07-05T16:58:13.571Z,29.60
2017-07-05T17:00:40.988Z,29.50
2017-07-05T17:03:08.450Z,29.40
2017-07-05T17:05:35.888Z,29.40
2017-07-05T17:08:03.331Z,29.40
2017-07-05T17:10:30.761Z,29.40
2017-07-05T17:12:58.199Z,29.40
2017-07-05T17:15:25.628Z,29.40
2017-07-05T17:17:53.082Z,29.20
2017-07-05T17:20:20.536Z,29.10
2017-07-05T17:22:48.811Z,29.10
2017-07-05T17:25:16.247Z,29.10
2017-07-05T17:27:43.680Z,29.00
2017-07-05T17:30:11.196Z,29.00
2017-07-05T17:32:38.721Z,29.00
2017-07-05T17:35:09.378Z,29.00
2017-07-05T17:37:36.805Z,29.00
2017-07-05T17:40:04.313Z,29.00
2017-07-05T17:42:31.757Z,28.80
2017-07-05T17:44:59.316Z,28.70
2017-07-05T17:47:27.534Z,28.70
2017-07-05T17:49:55.080Z,28.70
2017-07-05T17:52:22.514Z,28.70
2017-07-05T17:54:49.981Z,28.60
2017-07-05T17:57:17.887Z,28.50
2017-07-05T17:59:45.332Z,28.50
2017-07-05T18:02:12.778Z,28.50
2017-07-05T18:04:40.220Z,28.50
2017-07-05T18:07:07.677Z,28.50
2017-07-05T18:09:35.112Z,28.50
2017-07-05T18:12:02.549Z,28.50
2017-07-05T18:14:29.980Z,28.50
2017-07-05T18:16:57.417Z,28.50
2017-07-05T18:19:24.853Z,28.30
2017-07-05T18:21:53.076Z,28.10
2017-07-05T18:24:20.535Z,28.10
2017-07-05T18:26:48.068Z,28.10
2017-07-05T18:29:15.504Z,28.00
2017-07-05T18:31:43.223Z,27.90
2017-07-05T18:34:10.669Z,27.80
2017-07-05T18:36:38.092Z,27.80
2017-07-05T18:39:05.776Z,27.70
2017-07-05T18:41:33.203Z,27.70
2017-07-05T18:44:00.661Z,27.70
2017-07-05T18:46:28.103Z,27.60
2017-07-05T18:48:55.570Z,27.40
2017-07-05T18:51:23.003Z,27.40
2017-07-05T18:53:50.443Z,27.40
2017-07-05T18:56:17.881Z,27.40
2017-07-05T18:58:45.325Z,27.30
2017-07-05T19:01:12.756Z,27.30
2017-07-05T19:03:40.202Z,27.20
2017-07-05T19:06:07.638Z,27.20
2017-07-05T19:08:35.094Z,27.20
2017-07-05T19:11:02.534Z,27.10
2017-07-05T19:13:29.997Z,27.10
2017-07-05T19:15:57.432Z,27.10
2017-07-05T19:18:24.889Z,27.00
2017-07-05T19:20:52.296Z,27.00
2017-07-05T19:23:19.793Z,27.00
2017-07-05T19:25:47.997Z,26.90
2017-07-05T19:28:16.009Z,26.80
2017-07-05T19:30:44.252Z,26.80
2017-07-05T19:33:11.746Z,26.80
2017-07-05T19:35:40.012Z,26.80
2017-07-05T19:38:07.462Z,26.70
2017-07-05T19:40:34.890Z,26.70
2017-07-05T19:43:02.323Z,26.60
2017-07-05T19:45:29.754Z,26.60
2017-07-05T19:47:57.223Z,26.50
2017-07-05T19:50:24.650Z,26.50
2017-07-05T19:52:52.088Z,26.40
2017-07-05T19:55:19.532Z,26.40
2017-07-05T19:57:46.964Z,26.40
2017-07-05T20:00:15.161Z,26.40
2017-07-05T20:02:42.593Z,26.40
2017-07-05T20:05:10.028Z,26.30
2017-07-05T20:07:37.463Z,26.30
2017-07-05T20:10:04.914Z,26.30
2017-07-05T20:12:32.337Z,26.30
2017-07-05T20:14:59.845Z,26.30
2017-07-05T20:17:27.279Z,26.20
2017-07-05T20:19:54.708Z,26.20
2017-07-05T20:22:22.147Z,26.10
2017-07-05T20:24:49.577Z,26.10
2017-07-05T20:27:17.031Z,26.10
2017-07-05T20:29:44.715Z,26.00
2017-07-05T20:32:12.137Z,26.00
2017-07-05T20:34:39.634Z,25.90
2017-07-05T20:37:07.106Z,25.70
2017-07-05T20:39:34.572Z,25.60
2017-07-05T20:42:02.017Z,25.40
2017-07-05T20:44:29.778Z,25.30
2017-07-05T20:46:57.247Z,25.30
2017-07-05T20:49:25.517Z,25.20
2017-07-05T20:51:52.978Z,25.20
2017-07-05T20:54:20.614Z,25.20
2017-07-05T20:56:48.114Z,25.20
2017-07-05T20:59:15.590Z,25.20
2017-07-05T21:01:43.074Z,25.20
2017-07-05T21:04:10.550Z,25.20
2017-07-05T21:06:38.026Z,25.10
2017-07-05T21:09:06.257Z,25.00
2017-07-05T21:11:33.722Z,25.00
2017-07-05T21:14:02.002Z,25.00
2017-07-05T21:16:29.466Z,25.00
2017-07-05T21:18:56.938Z,24.90
2017-07-05T21:21:24.435Z,24.90
2017-07-05T21:23:51.902Z,24.90
2017-07-05T21:26:19.401Z,24.90
2017-07-05T21:28:46.870Z,24.80
2017-07-05T21:31:14.395Z,24.70
2017-07-05T21:33:42.663Z,24.50
2017-07-05T21:36:10.135Z,24.50
2017-07-05T21:38:37.590Z,24.30
2017-07-05T21:41:05.061Z,24.20
2017-07-05T21:43:32.561Z,24.10
2017-07-05T21:46:00.053Z,24.00
2017-07-05T21:48:27.506Z,23.90
2017-07-05T21:50:55.774Z,23.80
2017-07-05T21:53:24.011Z,23.70
2017-07-05T21:55:51.482Z,23.70
2017-07-05T21:58:19.718Z,23.60
2017-07-05T22:00:47.177Z,23.60
2017-07-05T22:03:15.415Z,23.50
2017-07-05T22:05:42.871Z,23.50
2017-07-05T22:08:10.342Z,23.50
2017-07-05T22:10:37.839Z,23.40
2017-07-05T22:13:05.313Z,23.40
2017-07-05T22:15:33.699Z,23.20
2017-07-05T22:18:01.166Z,23.20
2017-07-05T22:20:28.638Z,23.10
2017-07-05T22:22:56.114Z,23.10
2017-07-05T22:25:24.359Z,23.10
2017-07-05T22:27:52.598Z,23.00
2017-07-05T22:30:20.067Z,23.00
2017-07-05T22:32:48.337Z,22.80
2017-07-05T22:35:16.706Z,22.80
2017-07-05T22:37:44.174Z,22.80
2017-07-05T22:40:11.698Z,22.80
2017-07-05T22:42:39.264Z,22.70
2017-07-05T22:45:06.750Z,22.70
2017-07-05T22:47:34.206Z,22.60
2017-07-05T22:50:01.766Z,22.60
2017-07-05T22:52:30.018Z,22.50
2017-07-05T22:54:58.290Z,22.50
2017-07-05T22:57:25.889Z,22.50
2017-07-05T22:59:53.351Z,22.50
2017-07-05T23:02:20.818Z,22.40
2017-07-05T23:04:49.091Z,22.30
2017-07-05T23:07:16.570Z,22.30
2017-07-05T23:09:44.070Z,22.20
2017-07-05T23:12:12.359Z,22.10
2017-07-05T23:14:39.814Z,22.10
2017-07-05T23:17:07.286Z,22.10
2017-07-05T23:19:34.751Z,22.10
2017-07-05T23:22:02.965Z,22.00
2017-07-05T23:24:30.447Z,22.00
2017-07-05T23:26:57.877Z,22.10
2017-07-05T23:29:25.313Z,22.10
2017-07-05T23:31:52.752Z,22.10
2017-07-05T23:34:20.213Z,22.20
2017-07-05T23:36:47.669Z,22.20
2017-07-05T23:39:15.891Z,22.20
2017-07-05T23:41:43.353Z,22.20
2017-07-05T23:44:10.801Z,22.30
2017-07-05T23:46:38.240Z,22.30
2017-07-05T23:49:05.681Z,22.30
2017-07-05T23:51:33.113Z,22.30
2017-07-05T23:54:00.559Z,22.30
2017-07-05T23:56:27.989Z,22.20
2017-07-05T23:58:55.419Z,22.10
